Time;durP1;ratioP1;P1;durP2;ratioP2;P2;SDS_P1;SDS_P2;PMS_P1;PMS_P2;Temp;Humidity;BMP_temperature;BMP_pressure;BME280_temperature;BME280_humidity;BME280_pressure;Samples;Min_cycle;Max_cycle;Signal;HPM_P1;HPM_P2
2021/07/29 00:02:03;;;;;;;15.90;11.50;;;23.90;88.30;;;;;;5011656;28;20029;-62
2021/07/29 00:04:29;;;;;;;11.75;10.40;;;23.80;89.00;;;;;;5011509;28;20018;-62
2021/07/29 00:06:56;;;;;;;16.58;11.48;;;23.80;88.60;;;;;;5011166;28;20490;-62
2021/07/29 00:09:22;;;;;;;13.93;10.13;;;23.80;88.40;;;;;;5001373;28;20022;-62
2021/07/29 00:11:49;;;;;;;17.13;11.57;;;23.80;88.20;;;;;;5002616;28;20049;-62
2021/07/29 00:14:15;;;;;;;15.25;11.75;;;23.80;88.30;;;;;;5002447;28;20041;-61
2021/07/29 00:16:47;;;;;;;16.40;10.93;;;23.90;88.10;;;;;;5003646;28;20049;-61
2021/07/29 00:19:13;;;;;;;14.88;10.52;;;23.80;87.90;;;;;;5013533;28;20050;-62
2021/07/29 00:21:40;;;;;;;12.32;10.98;;;23.80;87.90;;;;;;5015452;28;20053;-62
2021/07/29 00:24:07;;;;;;;19.05;10.35;;;23.80;87.60;;;;;;5004656;28;20050;-61
2021/07/29 00:26:34;;;;;;;18.40;10.18;;;23.80;87.50;;;;;;5014894;28;20056;-62
2021/07/29 00:29:01;;;;;;;14.82;10.82;;;23.90;87.40;;;;;;5015002;28;20057;-62
2021/07/29 00:31:34;;;;;;;17.73;13.50;;;23.90;87.20;;;;;;5003912;28;20041;-61
2021/07/29 00:34:03;;;;;;;13.13;11.73;;;23.90;88.00;;;;;;5004917;28;20049;-62
2021/07/29 00:36:31;;;;;;;17.55;11.70;;;23.90;87.20;;;;;;5005836;28;20371;-63
2021/07/29 00:39:02;;;;;;;14.20;12.70;;;23.80;87.40;;;;;;5002969;28;20487;-61
2021/07/29 00:41:28;;;;;;;12.48;10.20;;;23.90;87.40;;;;;;4996452;28;20487;-61
2021/07/29 00:44:00;;;;;;;15.00;11.23;;;23.80;87.20;;;;;;4996211;28;20038;-61
2021/07/29 00:46:28;;;;;;;14.52;10.40;;;23.70;87.20;;;;;;4994438;28;20046;-61
2021/07/29 00:48:55;;;;;;;14.93;11.10;;;23.80;87.50;;;;;;4995888;28;20046;-62
2021/07/29 00:51:22;;;;;;;13.80;11.07;;;23.60;87.90;;;;;;5003806;28;20387;-61
2021/07/29 00:53:49;;;;;;;12.10;10.60;;;23.70;87.70;;;;;;5004581;28;20042;-62
2021/07/29 00:56:17;;;;;;;14.88;11.18;;;23.70;87.50;;;;;;5005240;28;20053;-61
2021/07/29 00:58:44;;;;;;;13.20;9.93;;;23.70;87.30;;;;;;5003440;28;20033;-61
2021/07/29 01:01:10;;;;;;;18.60;10.82;;;23.70;87.10;;;;;;5014167;28;20026;-61
2021/07/29 01:03:37;;;;;;;13.32;9.65;;;23.70;87.20;;;;;;5013629;28;20049;-61
2021/07/29 01:06:03;;;;;;;16.00;11.40;;;23.70;87.20;;;;;;5014342;28;20394;-62
2021/07/29 01:08:30;;;;;;;11.55;10.25;;;23.70;87.00;;;;;;5013719;28;20026;-61
2021/07/29 01:10:56;;;;;;;14.20;10.55;;;23.70;86.70;;;;;;5013756;28;20101;-60
2021/07/29 01:13:23;;;;;;;14.48;11.68;;;23.70;86.60;;;;;;5013706;28;20482;-61
2021/07/29 01:15:49;;;;;;;12.23;10.90;;;23.60;86.50;;;;;;5003830;28;20042;-61
2021/07/29 01:18:16;;;;;;;13.50;10.50;;;23.60;86.60;;;;;;5004580;28;20057;-61
2021/07/29 01:20:42;;;;;;;14.57;11.55;;;23.60;87.00;;;;;;5003324;28;20042;-61
2021/07/29 01:23:09;;;;;;;14.35;11.20;;;23.60;86.90;;;;;;5003913;28;20025;-61
2021/07/29 01:25:35;;;;;;;14.85;11.13;;;23.50;87.00;;;;;;5004683;28;20049;-60
2021/07/29 01:28:02;;;;;;;15.10;10.20;;;23.50;88.00;;;;;;5013728;28;20041;-61
2021/07/29 01:30:29;;;;;;;14.40;10.55;;;23.50;87.80;;;;;;5004028;28;20029;-61
2021/07/29 01:32:55;;;;;;;13.88;10.75;;;23.50;88.10;;;;;;5019418;28;20069;-62
2021/07/29 01:35:22;;;;;;;11.80;10.35;;;23.40;87.80;;;;;;5011017;28;20355;-62
2021/07/29 01:37:48;;;;;;;13.10;11.70;;;23.40;87.70;;;;;;5028504;28;20089;-62
2021/07/29 01:40:15;;;;;;;12.45;10.45;;;23.40;87.50;;;;;;5013347;28;20030;-62
2021/07/29 01:42:41;;;;;;;12.00;10.68;;;23.30;88.40;;;;;;5010703;28;20076;-62
2021/07/29 01:45:09;;;;;;;14.68;10.98;;;23.30;87.50;;;;;;5028552;28;20029;-62
2021/07/29 01:47:35;;;;;;;14.60;11.43;;;23.30;87.20;;;;;;5013376;28;20034;-62
2021/07/29 01:50:02;;;;;;;18.48;11.95;;;23.30;87.40;;;;;;5009605;28;20018;-62
2021/07/29 01:52:29;;;;;;;15.52;11.10;;;23.30;87.40;;;;;;5003448;28;20474;-62
2021/07/29 01:54:55;;;;;;;15.23;10.80;;;23.30;87.90;;;;;;5004065;28;20046;-62
2021/07/29 01:57:23;;;;;;;15.95;11.75;;;23.30;87.90;;;;;;5002562;28;20046;-62
2021/07/29 01:59:50;;;;;;;13.00;10.77;;;23.30;87.90;;;;;;5003390;28;20028;-62
2021/07/29 02:02:16;;;;;;;12.50;10.73;;;23.30;87.70;;;;;;5004112;28;20042;-62
2021/07/29 02:04:43;;;;;;;13.27;10.85;;;23.30;87.70;;;;;;5002677;28;20386;-62
2021/07/29 02:07:09;;;;;;;14.35;10.68;;;23.20;88.20;;;;;;5002634;28;20030;-62
2021/07/29 02:09:36;;;;;;;14.55;10.85;;;23.20;88.40;;;;;;5003888;28;20037;-62
2021/07/29 02:12:03;;;;;;;14.23;10.75;;;23.10;88.70;;;;;;5012615;28;20030;-62
2021/07/29 02:14:29;;;;;;;13.00;9.68;;;23.10;88.80;;;;;;5012861;28;20053;-62
2021/07/29 02:16:56;;;;;;;12.00;10.88;;;23.10;88.70;;;;;;5012715;28;20041;-62
2021/07/29 02:19:23;;;;;;;14.85;10.40;;;23.10;88.70;;;;;;5002524;28;20475;-63
2021/07/29 02:21:50;;;;;;;12.60;10.43;;;23.10;88.60;;;;;;5002617;28;20026;-62
2021/07/29 02:24:16;;;;;;;11.05;9.88;;;23.10;88.50;;;;;;5003857;28;21406;-62
2021/07/29 02:26:43;;;;;;;16.23;12.07;;;23.00;89.50;;;;;;5012710;28;20048;-62
2021/07/29 02:29:10;;;;;;;12.35;11.13;;;23.00;89.30;;;;;;5012498;28;20030;-62
2021/07/29 02:31:37;;;;;;;14.15;11.90;;;23.00;89.30;;;;;;5012367;28;20049;-62
2021/07/29 02:34:03;;;;;;;15.48;11.60;;;22.80;90.00;;;;;;5012389;28;20037;-63
2021/07/29 02:36:30;;;;;;;13.68;11.20;;;22.80;90.20;;;;;;5001722;28;20030;-63
2021/07/29 02:38:56;;;;;;;16.33;11.48;;;22.90;89.90;;;;;;5003265;28;20046;-62
2021/07/29 02:41:23;;;;;;;16.60;11.77;;;22.80;89.90;;;;;;5012837;28;20042;-63
2021/07/29 02:43:49;;;;;;;14.23;11.05;;;22.80;90.00;;;;;;5012221;28;20038;-62
2021/07/29 02:46:16;;;;;;;12.35;10.63;;;22.90;89.80;;;;;;5012318;28;20034;-62
2021/07/29 02:48:42;;;;;;;12.50;10.65;;;22.90;89.20;;;;;;5012136;28;20470;-62
2021/07/29 02:51:09;;;;;;;12.35;10.32;;;22.90;89.30;;;;;;5002475;28;20478;-62
2021/07/29 02:53:36;;;;;;;13.60;11.57;;;22.80;89.50;;;;;;5002871;28;20686;-62
2021/07/29 02:56:05;;;;;;;14.70;10.10;;;22.80;89.50;;;;;;5001882;28;20395;-63
2021/07/29 02:58:31;;;;;;;14.73;11.38;;;22.80;89.90;;;;;;5001690;28;20034;-62
2021/07/29 03:00:58;;;;;;;12.77;11.48;;;22.80;90.00;;;;;;5003208;28;20034;-62
2021/07/29 03:03:25;;;;;;;14.15;10.95;;;22.80;89.90;;;;;;5001660;28;20045;-62
2021/07/29 03:05:51;;;;;;;14.20;11.80;;;22.80;90.00;;;;;;5001935;28;20049;-62
2021/07/29 03:08:18;;;;;;;11.95;10.55;;;22.70;90.00;;;;;;5001986;28;20053;-62
2021/07/29 03:10:46;;;;;;;11.85;10.73;;;22.70;90.10;;;;;;4999804;28;20038;-62
2021/07/29 03:13:13;;;;;;;12.70;11.20;;;22.60;90.10;;;;;;5005430;28;20383;-62
2021/07/29 03:15:40;;;;;;;12.32;10.93;;;22.60;90.20;;;;;;5011140;28;20046;-62
2021/07/29 03:18:06;;;;;;;12.13;10.77;;;22.60;90.10;;;;;;5011669;28;20033;-62
2021/07/29 03:20:33;;;;;;;12.27;10.45;;;22.60;90.20;;;;;;5001111;28;20048;-62
2021/07/29 03:23:00;;;;;;;12.07;10.63;;;22.60;90.20;;;;;;5002956;28;20022;-62
2021/07/29 03:25:26;;;;;;;10.93;9.68;;;22.60;90.30;;;;;;5001339;28;20483;-62
2021/07/29 03:27:53;;;;;;;14.75;11.07;;;22.50;90.40;;;;;;5001357;28;20490;-63
2021/07/29 03:30:19;;;;;;;12.13;10.82;;;22.40;90.60;;;;;;5002756;28;20398;-62
2021/07/29 03:32:46;;;;;;;13.38;10.25;;;22.40;90.70;;;;;;5001235;28;20052;-62
2021/07/29 03:35:12;;;;;;;13.70;10.55;;;22.30;90.80;;;;;;5001183;28;20040;-62
2021/07/29 03:37:39;;;;;;;12.60;10.02;;;22.30;90.90;;;;;;5002364;28;20030;-62
2021/07/29 03:40:06;;;;;;;12.00;10.25;;;22.30;90.80;;;;;;5000918;28;20098;-62
2021/07/29 03:42:34;;;;;;;13.57;9.93;;;22.20;91.00;;;;;;5009973;28;20042;-62
2021/07/29 03:45:02;;;;;;;13.38;10.02;;;22.30;91.00;;;;;;5011309;28;20479;-61
2021/07/29 03:47:28;;;;;;;13.18;11.25;;;22.30;91.00;;;;;;5010942;28;20037;-61
2021/07/29 03:49:55;;;;;;;14.30;10.10;;;22.30;90.80;;;;;;5010398;28;20037;-62
2021/07/29 03:52:21;;;;;;;13.23;10.18;;;22.40;90.70;;;;;;5008241;28;20414;-62
2021/07/29 03:54:50;;;;;;;12.77;10.55;;;22.40;90.90;;;;;;5011105;28;20049;-61
2021/07/29 03:57:18;;;;;;;13.02;10.20;;;22.50;90.40;;;;;;5000433;28;20053;-61
2021/07/29 03:59:45;;;;;;;14.60;10.05;;;22.50;90.10;;;;;;5008938;28;20041;-62
2021/07/29 04:02:12;;;;;;;11.93;9.10;;;22.40;89.20;;;;;;5010945;28;20442;-62
2021/07/29 04:04:39;;;;;;;12.65;9.27;;;22.50;88.50;;;;;;4998951;28;20049;-62
2021/07/29 04:07:06;;;;;;;13.02;9.32;;;22.50;87.70;;;;;;5001835;28;20056;-63
2021/07/29 04:09:34;;;;;;;13.52;9.98;;;22.50;87.70;;;;;;5000977;28;20038;-62
2021/07/29 04:12:00;;;;;;;13.10;9.27;;;22.50;88.10;;;;;;5000088;28;20034;-62
2021/07/29 04:14:27;;;;;;;11.93;9.50;;;22.50;88.50;;;;;;5001313;28;20068;-62
2021/07/29 04:16:55;;;;;;;12.45;9.68;;;22.50;88.50;;;;;;5001419;28;20046;-62
2021/07/29 04:19:22;;;;;;;16.67;10.98;;;22.50;88.70;;;;;;5000126;28;20042;-62
2021/07/29 04:21:49;;;;;;;13.18;9.30;;;22.50;88.60;;;;;;5011021;28;20034;-63
2021/07/29 04:24:18;;;;;;;12.27;9.27;;;22.50;88.50;;;;;;5010390;28;20390;-61
2021/07/29 04:26:45;;;;;;;11.52;9.50;;;22.50;88.50;;;;;;5008673;28;20021;-62
2021/07/29 04:29:12;;;;;;;11.02;9.20;;;22.50;88.00;;;;;;5009386;28;20041;-63
2021/07/29 04:31:39;;;;;;;12.65;9.55;;;22.50;87.60;;;;;;5009569;28;20029;-61
2021/07/29 04:34:05;;;;;;;11.90;9.75;;;22.50;88.00;;;;;;5010838;28;20034;-62
2021/07/29 04:36:38;;;;;;;11.55;9.40;;;22.50;87.10;;;;;;5010005;28;20045;-62
2021/07/29 04:39:05;;;;;;;14.63;10.52;;;22.50;87.20;;;;;;5000351;28;20510;-62
2021/07/29 04:41:32;;;;;;;13.13;9.27;;;22.50;87.30;;;;;;5000742;28;20517;-62
2021/07/29 04:43:58;;;;;;;11.63;10.35;;;22.50;87.50;;;;;;5001677;28;20057;-62
2021/07/29 04:46:25;;;;;;;15.73;10.25;;;22.50;87.30;;;;;;5000264;28;20026;-66
2021/07/29 04:48:51;;;;;;;11.68;9.65;;;22.60;87.00;;;;;;5000705;28;20375;-63
2021/07/29 04:51:17;;;;;;;11.90;9.30;;;22.60;86.70;;;;;;5001925;28;20041;-62
2021/07/29 04:53:44;;;;;;;12.65;9.68;;;22.60;86.90;;;;;;4999930;28;20026;-62
2021/07/29 04:56:10;;;;;;;12.82;10.38;;;22.60;86.90;;;;;;5010559;28;20022;-62
2021/07/29 04:58:37;;;;;;;11.63;10.43;;;22.60;86.70;;;;;;5010333;28;20482;-62
2021/07/29 05:01:04;;;;;;;11.63;9.85;;;22.50;86.80;;;;;;5012844;28;20034;-62
2021/07/29 05:03:31;;;;;;;12.95;10.18;;;22.60;86.70;;;;;;5012454;28;20041;-62
2021/07/29 05:05:59;;;;;;;14.40;9.20;;;22.50;86.10;;;;;;5000851;28;20022;-62
2021/07/29 05:08:26;;;;;;;10.35;8.88;;;22.50;86.30;;;;;;4995609;28;20057;-62
2021/07/29 05:10:52;;;;;;;15.00;9.73;;;22.50;86.40;;;;;;4993856;28;20042;-63
2021/07/29 05:13:19;;;;;;;13.18;9.30;;;22.60;85.60;;;;;;4995471;28;20045;-62
2021/07/29 05:15:45;;;;;;;13.02;9.25;;;22.50;85.00;;;;;;4995272;28;20046;-63
2021/07/29 05:18:12;;;;;;;10.90;9.02;;;22.50;85.50;;;;;;5026952;28;20049;-62
2021/07/29 05:20:38;;;;;;;11.60;9.80;;;22.50;84.70;;;;;;4995651;28;20058;-61
2021/07/29 05:23:05;;;;;;;12.27;10.52;;;22.50;85.50;;;;;;4995612;28;20479;-61
2021/07/29 05:25:35;;;;;;;11.75;9.23;;;22.50;84.90;;;;;;4995277;28;20049;-61
2021/07/29 05:28:03;;;;;;;11.65;8.82;;;22.60;84.40;;;;;;4995144;28;20037;-61
2021/07/29 05:30:29;;;;;;;11.48;9.10;;;22.60;84.70;;;;;;4995537;28;20030;-60
2021/07/29 05:32:57;;;;;;;13.82;9.30;;;22.60;84.40;;;;;;4995657;28;20046;-63
2021/07/29 05:35:24;;;;;;;10.68;8.35;;;22.70;84.00;;;;;;4995332;28;20030;-62
2021/07/29 05:37:50;;;;;;;12.90;9.05;;;22.70;83.80;;;;;;5009762;28;20035;-63
2021/07/29 05:40:17;;;;;;;13.82;8.43;;;22.70;83.70;;;;;;4995036;28;20387;-62
2021/07/29 05:42:43;;;;;;;11.43;9.15;;;22.80;83.60;;;;;;4995067;28;20038;-62
2021/07/29 05:45:10;;;;;;;12.60;8.88;;;22.70;83.50;;;;;;4995206;28;20030;-62
2021/07/29 05:47:37;;;;;;;12.57;9.60;;;22.80;83.30;;;;;;4995069;28;20074;-62
2021/07/29 05:50:04;;;;;;;12.77;9.82;;;22.80;83.60;;;;;;4995205;28;20026;-63
2021/07/29 05:52:30;;;;;;;12.00;8.95;;;22.90;83.60;;;;;;4994813;28;20053;-59
2021/07/29 05:54:57;;;;;;;11.48;9.77;;;22.90;83.90;;;;;;4995011;28;20030;-62
2021/07/29 05:57:23;;;;;;;13.30;9.85;;;22.90;83.80;;;;;;4994710;28;20049;-62
2021/07/29 05:59:50;;;;;;;12.65;10.55;;;23.00;83.60;;;;;;4994765;28;20490;-63
2021/07/29 06:02:16;;;;;;;13.38;10.85;;;23.00;83.60;;;;;;4994804;28;20033;-62
2021/07/29 06:04:43;;;;;;;13.68;11.00;;;23.10;83.10;;;;;;4994541;28;20050;-63
2021/07/29 06:07:09;;;;;;;11.80;9.13;;;23.10;83.00;;;;;;4994282;28;20065;-62
2021/07/29 06:09:35;;;;;;;15.43;9.57;;;23.30;82.30;;;;;;4994480;28;20038;-62
2021/07/29 06:12:03;;;;;;;12.98;9.98;;;23.90;79.00;;;;;;4993877;28;20061;-62
2021/07/29 06:14:30;;;;;;;11.07;8.95;;;24.00;77.70;;;;;;5009796;28;20479;-62
2021/07/29 06:16:56;;;;;;;11.45;8.88;;;24.40;76.40;;;;;;4994493;28;20041;-62
2021/07/29 06:19:29;;;;;;;13.15;9.13;;;24.70;75.20;;;;;;4994223;28;20486;-62
2021/07/29 06:21:57;;;;;;;15.88;9.98;;;24.90;73.70;;;;;;4994446;28;20027;-62
2021/07/29 06:24:24;;;;;;;13.23;9.32;;;24.20;75.40;;;;;;4994045;28;20510;-62
2021/07/29 06:26:51;;;;;;;13.48;11.77;;;24.10;76.80;;;;;;4994579;28;20348;-62
2021/07/29 06:29:17;;;;;;;13.18;9.63;;;23.90;77.80;;;;;;4993970;28;20141;-62
2021/07/29 06:31:44;;;;;;;11.40;8.90;;;24.00;77.30;;;;;;4994163;28;20094;-61
2021/07/29 06:34:10;;;;;;;14.85;10.73;;;24.00;77.30;;;;;;4993683;28;20057;-61
2021/07/29 06:36:37;;;;;;;12.70;9.80;;;24.10;77.30;;;;;;4993839;28;20371;-61
2021/07/29 06:39:04;;;;;;;13.60;9.48;;;23.90;77.60;;;;;;4993988;28;20521;-59
2021/07/29 06:41:30;;;;;;;13.88;9.80;;;23.90;77.60;;;;;;4993704;28;20042;-63
2021/07/29 06:43:59;;;;;;;12.52;9.90;;;24.00;77.50;;;;;;4994168;28;20046;-62
2021/07/29 06:46:26;;;;;;;12.10;9.68;;;24.10;77.30;;;;;;4993345;28;20459;-62
2021/07/29 06:48:52;;;;;;;20.30;11.57;;;24.20;77.30;;;;;;4993943;28;20470;-62
2021/07/29 06:51:18;;;;;;;12.63;9.63;;;24.20;77.10;;;;;;4993562;28;20034;-62
2021/07/29 06:53:45;;;;;;;15.05;10.65;;;24.20;77.10;;;;;;4993938;28;20042;-62
2021/07/29 06:56:11;;;;;;;15.98;10.82;;;24.30;76.60;;;;;;4993704;28;20103;-62
2021/07/29 06:58:38;;;;;;;11.13;9.73;;;24.40;76.60;;;;;;4993574;28;20049;-62
2021/07/29 07:01:05;;;;;;;11.35;9.50;;;24.40;76.20;;;;;;4993623;28;20034;-60
2021/07/29 07:03:33;;;;;;;13.65;9.63;;;24.60;76.50;;;;;;4993798;28;20042;-62
2021/07/29 07:06:03;;;;;;;15.80;9.43;;;24.70;75.10;;;;;;4993272;28;20053;-66
2021/07/29 07:08:30;;;;;;;9.55;8.55;;;24.70;74.90;;;;;;4993551;28;20491;-65
2021/07/29 07:10:57;;;;;;;14.38;10.20;;;24.70;74.60;;;;;;4993473;28;20038;-60
2021/07/29 07:13:25;;;;;;;12.43;9.45;;;24.90;73.70;;;;;;4993533;28;20047;-59
2021/07/29 07:15:52;;;;;;;11.68;9.30;;;24.90;73.50;;;;;;5024502;28;20053;-60
2021/07/29 07:18:20;;;;;;;19.00;10.50;;;25.10;73.10;;;;;;4993138;28;20034;-61
2021/07/29 07:20:46;;;;;;;20.33;14.32;;;25.10;73.20;;;;;;4993636;28;20038;-61
2021/07/29 07:23:13;;;;;;;28.50;22.80;;;25.20;73.10;;;;;;4993088;28;20057;-61
2021/07/29 07:25:40;;;;;;;20.95;16.50;;;25.30;72.90;;;;;;4993576;28;20046;-61
2021/07/29 07:28:06;;;;;;;19.77;14.27;;;25.30;72.80;;;;;;4993164;28;20038;-60
2021/07/29 07:30:33;;;;;;;13.82;12.35;;;25.10;73.30;;;;;;5024805;28;20369;-61
2021/07/29 07:33:01;;;;;;;17.50;14.57;;;25.10;73.30;;;;;;4991054;28;20050;-62
2021/07/29 07:35:28;;;;;;;22.58;18.20;;;25.20;73.30;;;;;;4993180;28;20447;-62
2021/07/29 07:37:55;;;;;;;20.38;14.10;;;25.30;72.80;;;;;;4992734;28;20031;-61
2021/07/29 07:40:21;;;;;;;18.60;11.05;;;25.50;72.10;;;;;;4992711;28;20041;-62
2021/07/29 07:42:49;;;;;;;19.10;16.15;;;25.60;71.20;;;;;;4992438;28;20045;-60
2021/07/29 07:45:17;;;;;;;15.55;13.13;;;25.70;71.20;;;;;;5001080;28;20026;-62
2021/07/29 07:47:43;;;;;;;17.20;14.45;;;25.70;70.20;;;;;;4999252;28;20035;-61
2021/07/29 07:50:10;;;;;;;15.23;12.45;;;25.60;68.40;;;;;;5002485;28;20053;-61
2021/07/29 07:52:37;;;;;;;13.52;10.45;;;25.70;69.00;;;;;;5003177;28;20045;-61
2021/07/29 07:55:04;;;;;;;14.75;11.50;;;25.10;72.00;;;;;;5003508;28;20036;-62
2021/07/29 07:57:31;;;;;;;12.80;10.60;;;25.30;71.40;;;;;;5001892;28;20061;-61
2021/07/29 07:59:58;;;;;;;13.75;10.77;;;25.50;71.00;;;;;;5001204;28;20042;-60
2021/07/29 08:02:27;;;;;;;14.52;10.40;;;25.60;70.00;;;;;;5002890;28;20022;-61
2021/07/29 08:04:54;;;;;;;14.05;10.05;;;25.70;69.70;;;;;;5001313;28;20037;-62
2021/07/29 08:07:21;;;;;;;12.05;10.38;;;25.60;70.00;;;;;;5001599;28;20049;-62
2021/07/29 08:09:48;;;;;;;16.17;10.55;;;25.40;70.30;;;;;;4995000;28;20062;-62
2021/07/29 08:12:15;;;;;;;12.63;9.60;;;25.50;69.80;;;;;;4991691;28;20379;-62
2021/07/29 08:14:42;;;;;;;12.65;10.25;;;25.80;68.80;;;;;;4992033;28;20050;-61
2021/07/29 08:17:08;;;;;;;13.50;9.50;;;26.00;68.50;;;;;;4991680;28;20026;-61
2021/07/29 08:19:35;;;;;;;10.77;9.13;;;26.10;68.20;;;;;;4992468;28;20394;-64
2021/07/29 08:22:01;;;;;;;13.30;9.75;;;26.20;68.40;;;;;;4992629;28;20398;-63
2021/07/29 08:24:28;;;;;;;12.07;9.55;;;26.10;68.30;;;;;;4992145;28;20456;-62
2021/07/29 08:26:54;;;;;;;15.13;9.93;;;26.10;68.70;;;;;;4992098;28;20046;-62
2021/07/29 08:29:21;;;;;;;11.65;8.82;;;26.10;68.50;;;;;;5007189;28;20387;-62
2021/07/29 08:31:47;;;;;;;11.20;9.93;;;26.20;68.40;;;;;;4992892;28;20337;-63
2021/07/29 08:34:14;;;;;;;13.80;9.07;;;26.30;68.70;;;;;;4992407;28;20026;-63
2021/07/29 08:36:42;;;;;;;12.02;9.20;;;26.30;68.90;;;;;;4995539;28;20387;-59
2021/07/29 08:39:08;;;;;;;14.13;9.00;;;26.00;68.90;;;;;;4996748;28;20026;-60
2021/07/29 08:41:35;;;;;;;15.30;9.88;;;26.10;68.60;;;;;;4996248;28;20045;-60
2021/07/29 08:44:03;;;;;;;13.88;8.88;;;26.30;68.20;;;;;;4996135;28;20034;-60
2021/07/29 08:46:34;;;;;;;18.23;12.07;;;26.40;69.20;;;;;;4994514;28;20046;-60
2021/07/29 08:49:01;;;;;;;15.57;10.52;;;26.70;67.60;;;;;;5027832;28;20046;-60
2021/07/29 08:51:28;;;;;;;14.98;11.20;;;26.80;67.60;;;;;;4995829;28;20042;-60
2021/07/29 08:54:04;;;;;;;14.10;10.32;;;26.60;68.40;;;;;;4995505;28;20073;-60
2021/07/29 08:56:30;;;;;;;13.27;10.73;;;26.50;69.20;;;;;;4995609;28;20043;-60
2021/07/29 08:58:57;;;;;;;12.70;9.52;;;26.70;68.80;;;;;;4996203;28;20382;-60
2021/07/29 09:01:56;;;;;;;13.82;10.70;;;27.00;68.00;;;;;;4995949;28;20038;-60
2021/07/29 09:04:23;;;;;;;11.93;9.98;;;27.10;67.20;;;;;;4996172;28;20045;-60
2021/07/29 09:07:04;;;;;;;14.45;10.05;;;27.20;66.40;;;;;;5026981;28;20486;-60
2021/07/29 09:09:39;;;;;;;14.85;10.02;;;27.30;66.40;;;;;;5001783;28;20057;-61
2021/07/29 09:12:16;;;;;;;12.07;9.45;;;27.40;65.90;;;;;;5013638;28;20033;-61
2021/07/29 09:14:43;;;;;;;13.32;10.77;;;27.40;65.90;;;;;;5013516;28;20046;-60
2021/07/29 09:17:10;;;;;;;12.10;9.70;;;27.30;65.70;;;;;;5014970;28;20030;-60
2021/07/29 09:19:39;;;;;;;14.27;11.00;;;27.30;66.30;;;;;;5013423;28;20374;-62
2021/07/29 09:22:07;;;;;;;13.18;10.60;;;27.20;66.40;;;;;;5015109;28;20053;-62
2021/07/29 09:24:33;;;;;;;18.58;10.60;;;27.30;66.10;;;;;;5015617;28;20577;-61
2021/07/29 09:27:00;;;;;;;14.80;10.93;;;27.40;65.70;;;;;;5014536;28;20498;-61
2021/07/29 09:29:28;;;;;;;15.93;10.88;;;27.50;65.20;;;;;;5015490;28;20030;-63
2021/07/29 09:32:10;;;;;;;14.88;11.93;;;27.40;64.70;;;;;;5014993;28;20394;-61
2021/07/29 09:34:47;;;;;;;15.25;10.68;;;27.00;65.50;;;;;;5013314;28;20049;-61
2021/07/29 09:37:15;;;;;;;14.48;11.00;;;26.80;67.10;;;;;;5015155;28;20041;-61
2021/07/29 09:39:42;;;;;;;16.17;12.13;;;27.00;65.60;;;;;;5015033;28;20057;-62
2021/07/29 09:42:15;;;;;;;12.85;9.45;;;27.00;66.20;;;;;;5014253;28;20029;-59
2021/07/29 09:44:45;;;;;;;15.05;11.45;;;27.30;65.50;;;;;;5014067;28;20034;-61
2021/07/29 09:47:12;;;;;;;;;;;27.30;64.80;;;;;;5015042;28;20122;-59
2021/07/29 09:49:39;;;;;;;12.48;9.48;;;27.50;64.50;;;;;;5014875;28;20388;-60
2021/07/29 09:52:06;;;;;;;16.55;10.43;;;27.30;65.90;;;;;;5014835;28;20030;-60
2021/07/29 09:54:38;;;;;;;12.57;10.57;;;27.30;65.60;;;;;;5013269;28;20037;-59
2021/07/29 09:57:07;;;;;;;13.85;10.57;;;27.20;66.10;;;;;;5014614;28;20541;-59
2021/07/29 09:59:34;;;;;;;14.50;11.48;;;27.30;66.10;;;;;;5014570;28;20038;-61
2021/07/29 10:02:02;;;;;;;16.63;11.07;;;27.40;65.70;;;;;;5014343;28;20033;-59
2021/07/29 10:04:41;;;;;;;16.13;12.43;;;27.30;65.10;;;;;;5014667;28;20053;-60
2021/07/29 10:07:29;;;;;;;12.35;10.30;;;27.20;65.40;;;;;;5014379;28;20050;-61
2021/07/29 10:09:58;;;;;;;15.05;9.95;;;27.50;65.40;;;;;;5013227;28;20038;-60
2021/07/29 10:12:27;;;;;;;17.85;11.60;;;27.80;65.00;;;;;;5014514;28;20398;-60
2021/07/29 10:14:55;;;;;;;13.40;9.43;;;27.60;64.10;;;;;;5013942;28;20069;-60
2021/07/29 10:17:34;;;;;;;14.27;10.75;;;27.30;64.70;;;;;;5013889;28;20029;-60
2021/07/29 10:20:20;;;;;;;16.85;11.35;;;27.30;64.60;;;;;;5014116;28;20848;-60
2021/07/29 10:22:48;;;;;;;17.33;11.30;;;27.20;64.90;;;;;;5014575;28;20041;-61
2021/07/29 10:25:15;;;;;;;16.83;9.55;;;27.20;64.60;;;;;;5013634;28;20482;-64
2021/07/29 10:28:22;;;;;;;18.50;11.00;;;27.40;64.70;;;;;;5013762;28;20053;-62
2021/07/29 10:30:57;;;;;;;17.40;11.68;;;27.50;64.70;;;;;;5014019;28;20034;-62
2021/07/29 10:33:25;;;;;;;13.82;10.57;;;27.60;64.70;;;;;;5013297;28;20038;-63
2021/07/29 10:35:52;;;;;;;15.15;11.57;;;27.80;62.50;;;;;;5014078;28;20033;-60
2021/07/29 10:38:47;;;;;;;14.15;10.30;;;27.50;63.50;;;;;;5013453;28;20064;-58
2021/07/29 10:41:23;;;;;;;15.52;12.20;;;27.40;64.70;;;;;;5012931;28;20379;-61
2021/07/29 10:43:50;;;;;;;16.95;12.52;;;27.30;64.60;;;;;;5014014;28;20025;-59
2021/07/29 10:46:16;;;;;;;19.42;16.08;;;27.30;64.60;;;;;;5013234;28;20042;-60
2021/07/29 10:48:51;;;;;;;16.73;10.48;;;27.50;64.60;;;;;;5013003;28;20045;-59
2021/07/29 10:51:22;;;;;;;15.02;11.05;;;27.70;63.40;;;;;;5013498;28;20034;-60
2021/07/29 10:53:52;;;;;;;18.65;15.95;;;27.80;63.40;;;;;;5013380;28;20057;-63
2021/07/29 10:56:22;;;;;;;14.45;11.13;;;27.70;63.20;;;;;;5013291;28;20075;-60
2021/07/29 10:58:56;;;;;;;16.17;10.95;;;27.70;63.00;;;;;;5013062;28;20034;-62
2021/07/29 11:01:46;;;;;;;11.25;9.48;;;27.50;64.00;;;;;;5012827;28;20386;-61
2021/07/29 11:04:54;;;;;;;11.10;9.48;;;27.70;64.50;;;;;;5012266;28;20064;-61
2021/07/29 11:07:20;;;;;;;12.45;9.63;;;28.10;62.70;;;;;;5013008;28;20394;-61
2021/07/29 11:09:47;;;;;;;9.75;8.50;;;28.00;62.00;;;;;;5012615;28;20029;-68
2021/07/29 11:12:16;;;;;;;13.43;9.25;;;28.20;62.00;;;;;;5011787;28;20045;-61
2021/07/29 11:14:43;;;;;;;10.73;9.20;;;28.30;60.80;;;;;;5010630;28;20053;-61
2021/07/29 11:17:10;;;;;;;15.10;9.98;;;28.40;60.60;;;;;;5012533;28;20526;-59
2021/07/29 11:19:48;;;;;;;11.40;8.95;;;28.30;60.40;;;;;;5012981;28;20034;-60
2021/07/29 11:22:15;;;;;;;10.20;9.07;;;28.30;59.80;;;;;;5012864;28;20374;-60
2021/07/29 11:24:42;;;;;;;26.40;18.38;;;28.20;60.30;;;;;;5012458;28;20037;-59
2021/07/29 11:27:16;;;;;;;15.57;11.88;;;28.20;61.00;;;;;;5013041;28;20025;-60
2021/07/29 11:30:00;;;;;;;14.10;10.07;;;28.30;60.70;;;;;;5011884;28;20037;-60
2021/07/29 11:32:38;;;;;;;12.88;11.23;;;28.50;59.80;;;;;;5012073;28;20478;-60
2021/07/29 11:35:10;;;;;;;14.20;10.30;;;28.50;59.60;;;;;;5012449;28;20029;-60
2021/07/29 11:37:41;;;;;;;14.75;10.85;;;28.60;59.30;;;;;;5001947;28;20046;-60
2021/07/29 11:40:20;;;;;;;16.63;9.90;;;28.60;59.40;;;;;;4994473;28;20039;-60
2021/07/29 11:42:46;;;;;;;12.23;9.18;;;28.50;59.60;;;;;;4991905;28;20037;-60
2021/07/29 11:45:27;;;;;;;11.18;9.52;;;28.40;59.70;;;;;;4992807;28;20356;-60
2021/07/29 11:47:54;;;;;;;11.18;8.68;;;28.40;59.50;;;;;;4991487;28;20034;-59
2021/07/29 11:50:41;;;;;;;11.13;8.93;;;28.30;59.60;;;;;;4993417;28;20370;-58
2021/07/29 11:53:09;;;;;;;14.05;10.05;;;28.20;59.80;;;;;;4992542;28;20026;-59
2021/07/29 11:55:37;;;;;;;11.90;10.48;;;28.10;60.00;;;;;;4991943;28;20041;-59
2021/07/29 11:58:11;;;;;;;11.05;9.48;;;28.20;60.60;;;;;;4992714;28;20041;-58
2021/07/29 12:00:38;;;;;;;14.27;9.38;;;28.40;60.10;;;;;;4991998;28;20034;-58
2021/07/29 12:03:05;;;;;;;14.63;9.80;;;28.20;60.30;;;;;;4992824;28;20034;-59
2021/07/29 12:05:34;;;;;;;10.32;8.35;;;28.20;60.20;;;;;;4992825;28;20053;-59
2021/07/29 12:08:03;;;;;;;11.73;8.82;;;28.30;60.20;;;;;;4992261;28;20045;-59
2021/07/29 12:10:31;;;;;;;11.63;8.30;;;28.40;59.70;;;;;;4994025;28;20034;-59
2021/07/29 12:12:58;;;;;;;11.77;8.65;;;28.70;59.70;;;;;;4997249;28;20038;-59
2021/07/29 12:15:25;;;;;;;10.85;8.73;;;28.70;58.60;;;;;;4996220;28;20069;-59
2021/07/29 12:17:52;;;;;;;11.80;9.60;;;28.60;59.00;;;;;;4997154;28;20034;-59
2021/07/29 12:20:20;;;;;;;12.57;9.05;;;28.60;59.10;;;;;;4996448;28;20062;-59
2021/07/29 12:22:46;;;;;;;16.90;10.35;;;28.60;59.30;;;;;;4994917;28;20042;-59
2021/07/29 12:25:31;;;;;;;9.63;8.65;;;28.70;58.90;;;;;;4996769;28;20383;-59
2021/07/29 12:27:58;;;;;;;12.85;8.35;;;28.80;59.10;;;;;;4996468;28;20046;-59
2021/07/29 12:30:36;;;;;;;14.13;9.75;;;29.00;58.10;;;;;;4995986;28;20033;-59
2021/07/29 12:33:16;;;;;;;12.30;8.52;;;29.10;57.20;;;;;;4996587;28;20038;-59
2021/07/29 12:36:07;;;;;;;11.20;8.50;;;29.00;57.40;;;;;;4996355;28;20037;-59
2021/07/29 12:38:35;;;;;;;12.63;9.02;;;29.10;56.60;;;;;;4994861;28;20053;-59